Time;durP1;ratioP1;P1;durP2;ratioP2;P2;SDS_P1;SDS_P2;PMS_P1;PMS_P2;Temp;Humidity;BMP_temperature;BMP_pressure;BME280_temperature;BME280_humidity;BME280_pressure;Samples;Min_cycle;Max_cycle;Signal;HPM_P1;HPM_P2
2022/05/13 00:00:24;;;;;;;6.70;4.70;;;;;;;10.83;52.54;100963.16;1709386;81;20915;-74
2022/05/13 00:02:50;;;;;;;7.17;4.03;;;;;;;10.76;52.59;100959.78;1726884;82;21571;-74
2022/05/13 00:05:16;;;;;;;8.10;4.45;;;;;;;10.71;52.69;100973.20;1732094;82;21250;-74
2022/05/13 00:07:42;;;;;;;8.63;4.33;;;;;;;10.66;52.71;100974.12;1732141;82;21031;-74
2022/05/13 00:10:10;;;;;;;6.85;4.40;;;;;;;10.60;52.75;100971.16;1718700;81;20996;-74
2022/05/13 00:12:42;;;;;;;6.80;4.50;;;;;;;10.53;52.83;100971.66;1722332;82;21040;-75
2022/05/13 00:15:14;;;;;;;7.72;4.22;;;;;;;10.48;52.87;100973.43;1706027;82;21008;-75
2022/05/13 00:17:47;;;;;;;6.92;4.30;;;;;;;10.41;52.91;100976.94;1702626;84;21055;-74
2022/05/13 00:20:16;;;;;;;7.67;4.05;;;;;;;10.32;53.02;100973.19;1710431;82;20996;-74
2022/05/13 00:22:49;;;;;;;8.40;4.35;;;;;;;10.24;53.05;100969.37;1730837;82;20937;-75
2022/05/13 00:25:20;;;;;;;6.92;4.47;;;;;;;10.17;53.14;100972.84;1732059;82;22215;-74
2022/05/13 00:27:49;;;;;;;7.08;4.05;;;;;;;10.10;53.21;100966.02;1729022;81;20973;-75
2022/05/13 00:30:17;;;;;;;9.15;3.95;;;;;;;10.04;53.29;100966.50;1702402;82;21020;-75
2022/05/13 00:32:47;;;;;;;10.40;4.45;;;;;;;10.00;53.39;100971.27;1720746;82;21130;-74
2022/05/13 00:35:32;;;;;;;8.83;3.62;;;;;;;9.96;53.44;100971.73;1722105;82;21545;-74
2022/05/13 00:37:58;;;;;;;;;;;;;;;9.87;53.44;100963.64;1707208;82;20956;-74
2022/05/13 00:40:25;;;;;;;6.72;3.90;;;;;;;9.81;53.88;100960.25;1732199;82;20747;-74
2022/05/13 00:42:54;;;;;;;5.03;3.58;;;;;;;9.74;53.51;100961.16;1701458;82;21803;-74
2022/05/13 00:45:21;;;;;;;4.62;3.47;;;;;;;9.69;53.60;100962.91;1725539;81;21390;-75
2022/05/13 00:47:47;;;;;;;5.00;4.13;;;;;;;9.46;53.95;100934.23;1709162;82;21406;-75
2022/05/13 00:50:15;;;;;;;7.95;3.67;;;;;;;9.46;53.95;100934.23;1725031;82;21965;-75
2022/05/13 00:52:44;;;;;;;7.33;3.00;;;;;;;9.51;53.79;100951.84;1704448;82;21552;-75
2022/05/13 00:55:15;;;;;;;3.77;3.10;;;;;;;9.49;53.89;100952.71;1730062;81;20921;-74
2022/05/13 00:57:42;;;;;;;4.53;3.45;;;;;;;9.48;53.98;100960.03;1731621;82;21479;-74
2022/05/13 01:00:13;;;;;;;4.15;3.30;;;;;;;9.46;53.98;100963.91;1729082;82;20932;-74
2022/05/13 01:02:43;;;;;;;4.10;3.02;;;;;;;9.47;54.08;100960.89;1717096;82;20921;-75
2022/05/13 01:05:08;;;;;;;4.83;2.92;;;;;;;9.43;54.13;100962.64;1718219;82;21369;-74
2022/05/13 01:07:34;;;;;;;4.33;2.75;;;;;;;9.38;54.16;100964.82;1725423;82;21312;-74
2022/05/13 01:10:05;;;;;;;4.00;2.67;;;;;;;9.36;54.29;100956.26;1734107;82;21673;-74
2022/05/13 01:12:38;;;;;;;4.92;2.37;;;;;;;9.35;54.37;100954.11;1729607;81;21469;-75
2022/05/13 01:15:22;;;;;;;3.27;2.47;;;;;;;9.34;54.39;100955.41;1719844;82;20949;-75
2022/05/13 01:18:09;;;;;;;3.00;2.50;;;;;;;9.28;54.46;100962.32;1702994;84;21516;-75
2022/05/13 01:20:46;;;;;;;3.20;2.60;;;;;;;9.22;54.49;100962.34;1704023;82;20969;-75
2022/05/13 01:23:19;;;;;;;7.65;2.67;;;;;;;9.18;54.62;100960.64;1707834;81;21538;-74
2022/05/13 01:26:08;;;;;;;4.57;2.90;;;;;;;9.18;54.70;100961.08;1705803;82;21504;-73
2022/05/13 01:28:47;;;;;;;3.92;2.52;;;;;;;9.16;54.73;100960.23;1711750;82;21461;-74
2022/05/13 01:31:30;;;;;;;4.60;2.50;;;;;;;9.13;54.76;100966.69;1719582;82;21430;-74
2022/05/13 01:33:57;;;;;;;4.05;2.10;;;;;;;9.10;54.80;100964.98;1703424;82;21531;-74
2022/05/13 01:36:23;;;;;;;4.97;2.42;;;;;;;9.08;54.89;100957.68;1702392;84;21496;-75
2022/05/13 01:38:50;;;;;;;6.58;2.87;;;;;;;9.06;54.91;100956.83;1704914;81;21623;-75
2022/05/13 01:41:16;;;;;;;7.92;3.15;;;;;;;9.06;55.00;100952.95;1720753;82;21051;-74
2022/05/13 01:43:45;;;;;;;4.30;2.65;;;;;;;9.06;55.07;100947.80;1731754;82;21468;-74
2022/05/13 01:46:12;;;;;;;3.92;2.55;;;;;;;9.06;55.06;100950.81;1725957;81;21577;-74
2022/05/13 01:48:39;;;;;;;5.92;3.15;;;;;;;9.04;55.13;100944.80;1711251;82;21040;-74
2022/05/13 01:51:08;;;;;;;8.95;3.05;;;;;;;9.00;55.17;100944.39;1702566;84;21060;-74
2022/05/13 01:53:35;;;;;;;5.15;3.47;;;;;;;8.96;55.28;100944.41;1702546;81;21549;-74
2022/05/13 01:56:01;;;;;;;8.73;2.75;;;;;;;8.96;55.34;100944.84;1689415;82;20977;-74
2022/05/13 01:58:27;;;;;;;4.83;3.50;;;;;;;8.95;55.43;100937.96;1683073;83;21039;-74
2022/05/13 02:00:56;;;;;;;5.17;2.90;;;;;;;8.98;55.45;100938.37;1672264;83;20988;-74
2022/05/13 02:06:10;;;;;;;4.30;2.83;;;;;;;8.95;55.47;100932.80;1682993;83;21083;-74
2022/05/13 02:08:40;;;;;;;5.83;3.45;;;;;;;8.93;55.62;100931.95;1665565;85;21461;-74
2022/05/13 02:11:06;;;;;;;7.87;4.63;;;;;;;8.94;55.68;100937.10;1659360;86;21382;-74
2022/05/13 02:13:33;;;;;;;6.62;3.67;;;;;;;8.93;55.72;100929.38;1674236;85;21153;-74
2022/05/13 02:16:00;;;;;;;4.28;3.00;;;;;;;8.93;55.76;100928.08;1683079;83;20921;-75
2022/05/13 02:18:27;;;;;;;6.97;3.37;;;;;;;8.92;55.85;100923.36;1672576;85;21482;-74
2022/05/13 02:20:53;;;;;;;3.52;3.02;;;;;;;8.93;55.88;100925.50;1676492;83;20921;-74
2022/05/13 02:23:21;;;;;;;4.23;2.90;;;;;;;8.90;55.95;100921.64;1675311;85;21690;-75
2022/05/13 02:25:49;;;;;;;3.77;3.08;;;;;;;8.89;56.05;100923.80;1687029;84;20890;-74
2022/05/13 02:28:18;;;;;;;6.40;3.30;;;;;;;8.89;56.12;100923.80;1674260;85;20952;-74
2022/05/13 02:30:45;;;;;;;5.05;3.20;;;;;;;8.86;56.17;100920.80;1687180;85;21485;-74
2022/05/13 02:33:11;;;;;;;4.10;3.40;;;;;;;8.86;56.27;100924.67;1675405;84;20961;-74
2022/05/13 02:35:37;;;;;;;4.50;4.00;;;;;;;8.86;56.28;100927.68;1679371;83;21000;-74
2022/05/13 02:38:03;;;;;;;9.37;3.60;;;;;;;8.86;56.32;100925.95;1681492;85;20933;-74
2022/05/13 02:43:14;;;;;;;3.52;2.42;;;;;;;8.83;56.33;100926.44;1671385;83;20925;-74
2022/05/13 02:45:41;;;;;;;3.73;2.93;;;;;;;8.79;56.34;100932.03;1687190;85;20910;-74
2022/05/13 02:48:08;;;;;;;6.15;3.10;;;;;;;8.73;56.37;100928.63;1677211;85;20847;-74
2022/05/13 02:50:37;;;;;;;3.08;2.77;;;;;;;8.68;56.46;100927.77;1681880;85;20917;-73
2022/05/13 02:53:03;;;;;;;3.10;2.58;;;;;;;8.65;56.50;100919.62;1674690;85;20961;-74
2022/05/13 02:55:29;;;;;;;3.83;2.10;;;;;;;8.58;56.49;100925.22;1687142;82;20890;-73
2022/05/13 02:57:55;;;;;;;6.10;3.10;;;;;;;8.51;56.54;100922.66;1670497;84;20949;-73
2022/05/13 03:00:21;;;;;;;6.87;3.60;;;;;;;8.46;56.69;100925.25;1681464;85;20945;-73
2022/05/13 03:02:47;;;;;;;4.17;3.20;;;;;;;8.41;56.77;100926.98;1686060;84;21052;-74
2022/05/13 03:05:13;;;;;;;5.83;3.37;;;;;;;8.34;56.80;100929.57;1685895;84;20980;-74
2022/05/13 03:07:40;;;;;;;7.57;3.73;;;;;;;8.27;56.96;100924.86;1678268;83;20989;-75
2022/05/13 03:10:08;;;;;;;7.22;3.20;;;;;;;8.25;57.05;100931.73;1715705;83;21045;-74
2022/05/13 03:12:35;;;;;;;5.40;3.05;;;;;;;8.26;57.15;100928.30;1686249;83;21060;-74
2022/05/13 03:15:03;;;;;;;5.05;3.58;;;;;;;8.30;57.17;100930.01;1667061;83;21445;-74
2022/05/13 03:17:29;;;;;;;5.30;3.10;;;;;;;8.30;57.19;100922.28;1683236;85;20972;-74
2022/05/13 03:19:55;;;;;;;7.53;3.47;;;;;;;8.31;57.23;100929.15;1685352;85;20907;-74
2022/05/13 03:22:24;;;;;;;5.35;3.40;;;;;;;8.30;57.29;100931.30;1684844;85;21050;-74
2022/05/13 03:24:50;;;;;;;5.15;2.83;;;;;;;8.29;57.33;100923.14;1669659;84;21056;-74
2022/05/13 03:27:16;;;;;;;4.80;2.93;;;;;;;8.25;57.30;100923.57;1679193;84;20868;-74
2022/05/13 03:29:42;;;;;;;3.30;3.00;;;;;;;8.20;57.33;100924.44;1685365;85;21055;-74
2022/05/13 03:32:09;;;;;;;3.27;2.93;;;;;;;8.15;57.37;100930.88;1677936;84;21055;-75
2022/05/13 03:34:39;;;;;;;4.53;3.45;;;;;;;8.15;57.49;100928.73;1668433;84;25473;-74
2022/05/13 03:37:07;;;;;;;4.72;2.65;;;;;;;8.17;57.62;100922.72;1657379;86;21131;-74
2022/05/13 03:39:33;;;;;;;4.70;3.17;;;;;;;8.17;57.59;100922.72;1658642;84;21076;-74
2022/05/13 03:41:59;;;;;;;3.93;3.13;;;;;;;8.16;57.60;100924.02;1675263;83;21116;-74
2022/05/13 03:44:26;;;;;;;4.67;3.25;;;;;;;8.12;57.66;100923.16;1669687;83;21141;-74
2022/05/13 03:46:52;;;;;;;5.37;3.90;;;;;;;8.14;57.71;100916.72;1678981;85;20945;-74
2022/05/13 03:49:18;;;;;;;3.57;2.97;;;;;;;8.18;57.79;100917.14;1685279;84;21456;-75
2022/05/13 03:51:44;;;;;;;4.43;3.30;;;;;;;8.18;57.76;100917.14;1675236;83;20925;-74
2022/05/13 03:54:10;;;;;;;5.17;3.55;;;;;;;8.15;57.83;100919.72;1671683;83;21052;-74
2022/05/13 03:56:36;;;;;;;5.07;3.53;;;;;;;8.16;57.91;100920.15;1682947;83;21846;-74
2022/05/13 03:59:03;;;;;;;6.47;3.67;;;;;;;8.21;57.98;100919.72;1674111;83;20996;-73
2022/05/13 04:01:29;;;;;;;4.70;3.87;;;;;;;8.27;58.17;100918.42;1681512;83;20922;-74
2022/05/13 04:03:55;;;;;;;4.47;4.00;;;;;;;8.44;58.27;100923.11;1684230;83;20953;-74
2022/05/13 04:09:07;;;;;;;5.28;3.55;;;;;;;8.84;58.49;100921.67;1670062;83;20981;-75
2022/05/13 04:11:37;;;;;;;5.50;4.20;;;;;;;9.03;58.48;100927.18;1675173;83;20905;-74
2022/05/13 04:16:52;;;;;;;4.53;3.92;;;;;;;9.26;58.59;100925.34;1670802;83;20992;-76
2022/05/13 04:19:21;;;;;;;5.00;4.45;;;;;;;9.37;58.62;100921.37;1680325;83;20944;-75
2022/05/13 04:21:47;;;;;;;6.33;4.22;;;;;;;9.46;58.67;100920.03;1673142;83;20945;-75
2022/05/13 04:24:17;;;;;;;5.83;3.95;;;;;;;9.53;58.66;100923.43;1697807;83;20941;-75
2022/05/13 04:26:45;;;;;;;6.72;4.55;;;;;;;9.60;58.70;100922.09;1686909;85;21441;-75
2022/05/13 04:29:10;;;;;;;;;;;;;;;9.68;58.72;100925.05;1689499;84;20944;-77
2022/05/13 04:31:41;;;;;;;8.40;4.33;;;;;;;9.75;59.22;100919.83;1669076;84;20146;-77
2022/05/13 04:34:12;;;;;;;9.80;4.87;;;;;;;9.83;58.79;100921.06;1669921;83;21185;-75
2022/05/13 04:36:38;;;;;;;6.40;4.40;;;;;;;9.91;58.82;100921.83;1666359;85;20969;-76
2022/05/13 04:39:05;;;;;;;7.97;4.20;;;;;;;9.97;58.89;100920.48;1643405;83;21702;-76
2022/05/13 04:44:17;;;;;;;9.95;4.28;;;;;;;10.15;59.00;100928.08;1689629;83;20934;-75
2022/05/13 04:46:44;;;;;;;10.65;4.00;;;;;;;10.27;59.05;100925.41;1697053;83;20950;-75
2022/05/13 04:49:10;;;;;;;11.65;4.58;;;;;;;10.38;59.08;100917.55;1686095;83;20945;-75
2022/05/13 04:51:37;;;;;;;9.60;4.40;;;;;;;10.49;59.09;100922.58;1667409;84;20870;-75
2022/05/13 04:54:04;;;;;;;9.68;4.15;;;;;;;10.59;59.15;100925.48;1687357;83;20870;-75
2022/05/13 04:56:32;;;;;;;10.60;4.92;;;;;;;10.72;59.19;100918.45;1719277;81;20980;-75
2022/05/13 04:58:59;;;;;;;7.92;4.25;;;;;;;10.85;59.27;100914.41;1713860;82;20917;-75
2022/05/13 05:01:26;;;;;;;9.20;4.55;;;;;;;11.01;59.34;100918.91;1688081;83;20971;-76
2022/05/13 05:03:53;;;;;;;8.43;4.25;;;;;;;11.22;59.38;100922.95;1666604;84;20921;-82
2022/05/13 05:06:22;;;;;;;6.90;4.33;;;;;;;11.49;59.52;100919.95;1686106;83;20873;-81
2022/05/13 05:08:48;;;;;;;8.98;4.50;;;;;;;11.93;59.71;100912.81;1678322;83;20921;-82
2022/05/13 05:11:16;;;;;;;6.85;3.75;;;;;;;12.50;59.75;100915.19;1691583;84;20882;-82
2022/05/13 05:13:47;;;;;;;7.15;3.65;;;;;;;13.11;59.76;100921.72;1691965;84;20981;-81
2022/05/13 05:16:16;;;;;;;5.55;3.52;;;;;;;13.79;59.83;100927.09;1684179;83;20909;-81
2022/05/13 05:18:44;;;;;;;7.12;3.58;;;;;;;14.57;59.82;100922.02;1687564;84;20941;-80
2022/05/13 05:21:11;;;;;;;6.55;3.37;;;;;;;15.31;59.72;100927.67;1687015;83;20961;-80
2022/05/13 05:23:40;;;;;;;4.97;3.37;;;;;;;15.88;59.56;100923.23;1684562;84;20921;-80
2022/05/13 05:26:07;;;;;;;5.10;3.10;;;;;;;16.41;59.38;100926.21;1690664;83;20941;-80
2022/05/13 05:28:37;;;;;;;6.33;2.85;;;;;;;16.95;59.17;100931.21;1688276;83;20965;-80
2022/05/13 05:31:03;;;;;;;6.22;3.52;;;;;;;17.53;58.99;100935.48;1667914;84;20881;-79
2022/05/13 05:33:30;;;;;;;3.67;2.77;;;;;;;18.09;58.82;100937.12;1673865;84;20964;-80
2022/05/13 05:35:57;;;;;;;4.85;2.60;;;;;;;18.52;58.51;100935.26;1697162;83;21386;-80
2022/05/13 05:38:24;;;;;;;6.37;2.97;;;;;;;18.82;58.29;100940.91;1672471;84;20957;-80
2022/05/13 05:40:50;;;;;;;4.15;2.67;;;;;;;19.01;58.09;100937.86;1682705;84;20953;-80
2022/05/13 05:43:17;;;;;;;8.25;3.30;;;;;;;19.28;57.88;100938.78;1676548;83;20938;-80
2022/05/13 05:45:43;;;;;;;8.58;2.50;;;;;;;19.63;57.60;100940.62;1681035;84;21823;-80
2022/05/13 05:48:14;;;;;;;4.80;2.53;;;;;;;19.99;57.48;100935.31;1685246;83;20916;-80
2022/05/13 05:50:59;;;;;;;4.58;2.65;;;;;;;20.49;57.36;100945.03;1677742;84;21382;-76
2022/05/13 05:58:58;;;;;;;4.37;2.00;;;;;;;21.89;56.76;100939.05;1720816;81;21027;-77
2022/05/13 06:01:25;;;;;;;6.83;2.20;;;;;;;22.36;56.39;100941.53;1709921;82;20929;-77
2022/05/13 06:03:51;;;;;;;7.27;2.30;;;;;;;22.63;56.16;100940.34;1716734;83;20910;-77
2022/05/13 06:06:17;;;;;;;4.60;1.80;;;;;;;22.90;55.78;100938.66;1701730;83;21750;-77
2022/05/13 06:08:43;;;;;;;3.07;1.77;;;;;;;23.07;55.38;100939.77;1710494;81;21652;-77
2022/05/13 06:11:09;;;;;;;3.63;2.20;;;;;;;23.19;54.87;100930.23;1687768;83;20909;-77
2022/05/13 06:13:37;;;;;;;3.80;2.33;;;;;;;23.23;54.48;100934.84;1700366;83;21120;-77
2022/05/13 06:16:04;;;;;;;;;;;;;;;23.33;54.06;100932.84;1710527;83;21120;-77
2022/05/13 06:18:31;;;;;;;4.67;2.30;;;;;;;23.41;53.29;100931.00;1692416;81;20169;-77
2022/05/13 06:20:57;;;;;;;5.90;2.22;;;;;;;23.53;53.59;100931.56;1716484;83;21489;-77
2022/05/13 06:23:23;;;;;;;3.00;1.80;;;;;;;23.63;53.04;100935.30;1716729;83;20969;-77
2022/05/13 06:25:49;;;;;;;4.87;2.15;;;;;;;23.55;52.78;100942.03;1716596;83;21052;-77
2022/05/13 06:28:15;;;;;;;7.10;1.87;;;;;;;23.49;52.32;100937.95;1703720;81;20981;-77
2022/05/13 06:30:41;;;;;;;4.53;2.00;;;;;;;23.42;52.05;100936.66;1670441;83;21060;-77
2022/05/13 06:33:07;;;;;;;2.98;1.65;;;;;;;23.39;51.67;100932.93;1688116;83;21863;-77
2022/05/13 06:35:34;;;;;;;4.17;2.20;;;;;;;23.48;51.40;100929.66;1690092;83;21602;-77
2022/05/13 06:38:00;;;;;;;3.75;2.17;;;;;;;23.56;50.89;100925.24;1706057;83;21082;-77
2022/05/13 06:40:28;;;;;;;5.45;2.00;;;;;;;23.50;50.60;100935.69;1709725;83;21322;-77
2022/05/13 06:42:54;;;;;;;2.47;1.65;;;;;;;23.44;50.32;100914.50;1700586;82;20965;-77
2022/05/13 06:45:21;;;;;;;3.15;1.60;;;;;;;23.65;50.12;100928.60;1700939;83;21655;-77
2022/05/13 06:47:48;;;;;;;3.67;2.00;;;;;;;23.91;49.82;100927.73;1716508;81;21114;-78
2022/05/13 06:50:18;;;;;;;9.00;3.52;;;;;;;24.14;49.38;100922.67;1711575;81;21036;-78
2022/05/13 06:52:46;;;;;;;3.95;2.65;;;;;;;24.25;48.72;100924.12;1732270;81;21274;-78
2022/05/13 06:55:15;;;;;;;3.02;1.55;;;;;;;24.29;48.66;100920.34;1734052;81;21048;-78
2022/05/13 06:57:41;;;;;;;5.28;1.42;;;;;;;24.47;48.34;100908.48;1706370;82;21374;-78
2022/05/13 07:00:10;;;;;;;3.00;1.82;;;;;;;24.47;48.34;100908.48;1695695;84;21099;-79
2022/05/13 07:02:36;;;;;;;5.97;1.92;;;;;;;24.48;47.85;100912.81;1689865;84;21054;-81
2022/05/13 07:05:03;;;;;;;2.42;1.65;;;;;;;24.42;47.29;100902.70;1686775;82;21108;-78
2022/05/13 07:07:29;;;;;;;4.05;1.50;;;;;;;24.45;47.34;100901.13;1690746;82;21398;-79
2022/05/13 07:09:55;;;;;;;2.17;1.40;;;;;;;24.49;47.04;100892.04;1684246;81;20988;-80
2022/05/13 07:12:21;;;;;;;3.40;1.75;;;;;;;24.63;46.88;100891.92;1690632;82;21044;-77
2022/05/13 07:14:49;;;;;;;4.87;2.30;;;;;;;24.72;46.41;100898.36;1686996;82;21150;-79
2022/05/13 07:17:15;;;;;;;5.62;2.17;;;;;;;24.77;46.12;100894.92;1685622;82;20948;-79
2022/05/13 07:19:41;;;;;;;2.90;1.47;;;;;;;24.89;45.68;100894.05;1694648;82;20941;-79
2022/05/13 07:22:07;;;;;;;4.37;1.17;;;;;;;24.94;45.64;100891.08;1706997;82;21117;-80
2022/05/13 07:24:33;;;;;;;3.57;1.97;;;;;;;25.07;45.35;100886.12;1642205;82;20964;-79
2022/05/13 07:27:00;;;;;;;4.00;2.00;;;;;;;25.17;45.03;100884.98;1663085;84;21418;-79
2022/05/13 07:29:26;;;;;;;4.23;1.90;;;;;;;25.23;44.48;100885.02;1697158;82;20853;-79
2022/05/13 07:31:52;;;;;;;6.77;1.40;;;;;;;25.18;44.51;100881.85;1691605;82;20936;-80
2022/05/13 07:34:18;;;;;;;2.95;1.60;;;;;;;25.19;43.80;100875.13;1662298;84;21539;-78
2022/05/13 07:36:45;;;;;;;2.33;1.32;;;;;;;25.08;43.57;100881.19;1684474;82;21080;-79
2022/05/13 07:42:11;;;;;;;3.55;1.60;;;;;;;25.51;43.76;100875.38;1705235;82;21044;-79
2022/05/13 07:44:38;;;;;;;2.17;1.22;;;;;;;25.51;43.14;100873.20;1707186;82;21010;-78
2022/05/13 07:47:08;;;;;;;2.52;1.30;;;;;;;25.45;42.88;100878.52;1694596;81;21107;-78
2022/05/13 07:49:35;;;;;;;4.90;1.22;;;;;;;25.50;42.53;100876.34;1683734;82;21540;-76
2022/05/13 07:52:01;;;;;;;2.37;1.42;;;;;;;25.43;42.28;100875.13;1695220;82;21055;-79
2022/05/13 07:54:27;;;;;;;3.98;1.60;;;;;;;25.25;41.63;100878.65;1693953;82;21151;-80
2022/05/13 07:56:53;;;;;;;5.00;1.27;;;;;;;25.06;41.47;100874.32;1691634;82;21074;-81
2022/05/13 07:59:20;;;;;;;3.65;1.27;;;;;;;25.01;41.58;100877.30;1691853;83;21100;-79
2022/05/13 08:01:47;;;;;;;2.85;1.20;;;;;;;24.99;41.22;100869.95;1697523;83;21076;-78
2022/05/13 08:04:13;;;;;;;1.65;1.05;;;;;;;25.03;41.16;100866.60;1689315;83;21115;-78
2022/05/13 08:06:41;;;;;;;3.85;1.00;;;;;;;24.96;40.76;100866.67;1691813;83;21117;-78
2022/05/13 08:09:07;;;;;;;3.27;1.20;;;;;;;25.00;40.82;100867.67;1681230;83;20949;-79
2022/05/13 08:11:34;;;;;;;5.67;1.40;;;;;;;25.17;40.56;100866.45;1671703;84;33024;-78
2022/05/13 08:14:02;;;;;;;4.05;1.35;;;;;;;25.16;40.02;100862.59;1678301;83;21012;-78
2022/05/13 08:16:30;;;;;;;3.15;1.30;;;;;;;25.06;39.52;100870.35;1688221;83;21059;-78
2022/05/13 08:18:58;;;;;;;3.33;1.55;;;;;;;24.98;39.77;100864.77;1679966;83;21083;-79
2022/05/13 08:21:24;;;;;;;2.17;1.25;;;;;;;24.87;39.56;100856.28;1688420;83;21012;-79
2022/05/13 08:23:51;;;;;;;2.83;1.32;;;;;;;24.90;39.39;100859.18;1689612;83;21086;-79
2022/05/13 08:26:18;;;;;;;5.20;2.05;;;;;;;24.82;39.06;100858.41;1686800;83;21056;-79
2022/05/13 08:28:45;;;;;;;6.03;1.75;;;;;;;24.63;38.80;100857.55;1686042;83;21044;-78
2022/05/13 08:31:13;;;;;;;4.95;2.15;;;;;;;24.49;38.83;100848.89;1690245;83;21066;-79
2022/05/13 08:33:41;;;;;;;3.12;2.70;;;;;;;24.49;38.35;100858.14;1677749;83;21091;-79
2022/05/13 08:36:07;;;;;;;8.18;2.40;;;;;;;24.36;37.94;100851.10;1690724;83;20918;-79
2022/05/13 08:38:39;;;;;;;2.00;1.83;;;;;;;24.19;38.06;100850.06;1691391;83;20873;-79
2022/05/13 08:41:16;;;;;;;2.90;1.85;;;;;;;24.20;38.07;100847.80;1686538;83;21378;-78
2022/05/13 08:43:47;;;;;;;4.00;1.98;;;;;;;24.25;38.04;100844.39;1690723;83;21402;-78
2022/05/13 08:46:59;;;;;;;2.87;1.95;;;;;;;24.25;37.91;100822.37;1690289;83;20921;-79
2022/05/13 08:49:34;;;;;;;4.53;2.08;;;;;;;24.16;37.05;100837.54;1687507;83;20924;-79
2022/05/13 08:55:12;;;;;;;3.80;1.92;;;;;;;23.95;37.06;100842.50;1686160;83;20908;-78
2022/05/13 08:57:42;;;;;;;2.92;2.02;;;;;;;23.76;37.15;100837.17;1680154;83;20949;-78
2022/05/13 09:00:14;;;;;;;4.50;2.15;;;;;;;23.76;37.15;100837.17;1673330;83;21378;-79
2022/05/13 09:02:45;;;;;;;2.98;2.27;;;;;;;23.89;36.72;100833.22;1684667;83;20869;-80
2022/05/13 09:05:38;;;;;;;5.40;2.20;;;;;;;23.79;36.74;100833.95;1685880;83;21377;-79
2022/05/13 09:08:06;;;;;;;6.72;2.67;;;;;;;23.64;36.44;100845.91;1689689;83;20941;-79
2022/05/13 09:10:41;;;;;;;4.72;2.90;;;;;;;23.45;36.40;100844.08;1678495;83;20972;-79
2022/05/13 09:13:19;;;;;;;3.83;3.27;;;;;;;23.23;36.33;100843.82;1686153;83;21445;-79
2022/05/13 09:15:53;;;;;;;6.00;2.65;;;;;;;23.15;36.07;100843.00;1687051;83;21157;-79
2022/05/13 09:18:46;;;;;;;3.50;2.30;;;;;;;22.96;36.00;100844.65;1685230;83;21618;-78
2022/05/13 09:21:21;;;;;;;4.42;2.52;;;;;;;22.75;36.13;100834.98;1684470;83;21492;-78
2022/05/13 09:23:48;;;;;;;6.97;3.10;;;;;;;22.69;36.03;100837.16;1694583;83;20941;-78
2022/05/13 09:26:19;;;;;;;;;;;;;;;22.59;35.79;100836.89;1709712;83;21020;-78
2022/05/13 09:29:17;;;;;;;4.83;2.45;;;;;;;22.40;35.86;100842.45;1660601;84;21078;-79
2022/05/13 09:31:48;;;;;;;3.35;2.27;;;;;;;22.37;35.89;100833.41;1657564;84;21020;-79
2022/05/13 09:34:41;;;;;;;5.30;2.55;;;;;;;22.37;35.28;100833.88;1665721;82;21597;-79
2022/05/13 09:37:25;;;;;;;5.55;2.90;;;;;;;22.30;35.65;100832.59;1684792;83;21474;-79
2022/05/13 09:40:09;;;;;;;4.35;2.85;;;;;;;22.28;35.58;100827.89;1684342;83;21088;-79
2022/05/13 09:42:40;;;;;;;4.60;2.90;;;;;;;22.29;35.64;100823.00;1688754;83;21068;-79
2022/05/13 09:45:27;;;;;;;6.58;3.02;;;;;;;22.29;35.68;100804.09;1674615;83;21008;-79
2022/05/13 09:48:18;;;;;;;5.05;2.58;;;;;;;22.31;35.69;100811.42;1675718;83;21429;-78
2022/05/13 09:50:53;;;;;;;8.95;2.20;;;;;;;22.27;35.49;100808.60;1666292;84;21839;-78
2022/05/13 09:53:28;;;;;;;3.87;1.77;;;;;;;22.27;35.59;100811.70;1676081;82;21479;-78
2022/05/13 09:55:58;;;;;;;4.83;2.10;;;;;;;22.34;35.61;100803.33;1680768;83;21627;-78
2022/05/13 09:58:37;;;;;;;4.80;2.12;;;;;;;22.38;35.59;100794.27;1644209;83;21051;-78
2022/05/13 10:01:10;;;;;;;7.08;2.42;;;;;;;22.42;35.32;100796.23;1701668;83;21536;-78
2022/05/13 10:03:38;;;;;;;8.25;2.45;;;;;;;22.37;35.49;100795.67;1688971;83;21362;-78
2022/05/13 10:06:19;;;;;;;4.50;2.35;;;;;;;22.32;35.51;100796.00;1679624;83;21553;-79
2022/05/13 10:13:57;;;;;;;8.03;3.42;;;;;;;22.38;35.63;100790.78;1687683;83;21068;-78
2022/05/13 10:14:34;;;;;;;4.45;3.08;;;;;;;22.52;35.50;100792.56;1689213;83;21055;-79
2022/05/13 10:17:11;;;;;;;5.25;2.60;;;;;;;22.53;35.38;100791.62;1688588;83;20901;-80
2022/05/13 10:19:48;;;;;;;6.53;2.35;;;;;;;22.48;35.41;100791.05;1686200;83;21390;-79
2022/05/13 10:22:35;;;;;;;17.42;2.30;;;;;;;22.46;35.30;100786.73;1685756;83;20877;-79
2022/05/13 10:25:12;;;;;;;4.40;2.20;;;;;;;22.38;35.12;100785.04;1684623;83;20929;-79
2022/05/13 10:27:57;;;;;;;6.53;1.98;;;;;;;22.27;35.20;100786.68;1687208;83;20897;-80
2022/05/13 10:30:49;;;;;;;2.12;1.80;;;;;;;22.13;35.02;100793.64;1681008;83;20870;-78
2022/05/13 10:33:48;;;;;;;6.35;1.95;;;;;;;22.03;35.17;100791.66;1690416;83;20873;-78
2022/05/13 10:36:38;;;;;;;3.20;1.67;;;;;;;22.01;35.12;100783.85;1698758;83;21469;-77
2022/05/13 10:39:36;;;;;;;4.65;2.25;;;;;;;22.02;35.20;100778.11;1674455;83;21446;-78
2022/05/13 10:42:38;;;;;;;5.35;1.90;;;;;;;22.04;35.18;100769.65;1690102;83;20933;-79
2022/05/13 10:45:24;;;;;;;6.15;1.70;;;;;;;22.07;34.89;100763.73;1687865;83;21385;-78
2022/05/13 10:48:11;;;;;;;9.00;1.80;;;;;;;22.03;35.07;100766.17;1689570;83;21746;-80
2022/05/13 10:50:53;;;;;;;4.50;2.25;;;;;;;22.12;35.07;100773.52;1688288;83;20952;-78
2022/05/13 10:53:27;;;;;;;3.75;1.67;;;;;;;22.21;35.02;100769.47;1689116;83;20858;-78
2022/05/13 10:56:26;;;;;;;6.05;1.75;;;;;;;22.30;35.03;100776.80;1691800;83;20937;-78
2022/05/13 10:59:28;;;;;;;3.00;1.57;;;;;;;22.31;34.78;100767.11;1684623;83;21444;-78
2022/05/13 11:02:11;;;;;;;3.02;1.32;;;;;;;22.27;34.91;100770.41;1637486;85;21136;-78
2022/05/13 11:04:52;;;;;;;3.65;1.60;;;;;;;22.27;34.83;100773.51;1638565;85;21108;-79
2022/05/13 11:07:35;;;;;;;3.42;1.40;;;;;;;22.28;34.93;100768.14;1633017;85;21091;-79
2022/05/13 11:10:25;;;;;;;3.20;1.47;;;;;;;22.30;34.90;100769.37;1629743;85;21048;-79
2022/05/13 11:13:08;;;;;;;2.95;1.50;;;;;;;22.37;34.96;100767.54;1641529;85;21020;-78
2022/05/13 11:15:48;;;;;;;3.15;1.40;;;;;;;22.52;34.87;100762.25;1588776;85;21105;-79
2022/05/13 11:18:25;;;;;;;5.42;1.57;;;;;;;22.60;34.91;100771.37;1641178;85;21137;-78
2022/05/13 11:21:27;;;;;;;5.30;1.60;;;;;;;22.70;34.85;100766.36;1626342;86;21088;-78
2022/05/13 11:27:18;;;;;;;4.40;1.67;;;;;;;22.74;34.75;100748.08;1640214;85;21157;-78
2022/05/13 11:30:14;;;;;;;3.92;1.40;;;;;;;22.82;34.55;100748.46;1640047;85;21057;-78
2022/05/13 11:33:02;;;;;;;4.85;1.50;;;;;;;22.81;34.62;100736.70;1642290;85;21079;-79
2022/05/13 11:36:01;;;;;;;4.28;1.50;;;;;;;22.90;34.66;100734.28;1649287;82;21068;-79
2022/05/13 11:39:06;;;;;;;2.30;1.50;;;;;;;22.99;34.66;100738.11;1688051;83;21497;-79
2022/05/13 11:41:49;;;;;;;2.77;1.50;;;;;;;22.99;34.47;100729.72;1687225;83;20942;-78
2022/05/13 11:44:21;;;;;;;4.58;1.45;;;;;;;22.98;34.48;100741.22;1684332;83;21367;-78
2022/05/13 11:47:21;;;;;;;9.50;1.60;;;;;;;22.96;34.49;100728.60;1669474;83;20933;-78
2022/05/13 11:49:48;;;;;;;3.77;1.17;;;;;;;22.97;34.25;100734.72;1673088;83;20961;-78
2022/05/13 11:52:20;;;;;;;5.30;1.47;;;;;;;22.95;34.30;100732.19;1694464;82;21027;-78
2022/05/13 11:54:48;;;;;;;6.67;1.50;;;;;;;22.94;34.09;100730.97;1689195;83;21109;-80
2022/05/13 11:57:23;;;;;;;2.62;1.50;;;;;;;22.93;33.96;100720.89;1672825;84;21047;-80
2022/05/13 12:00:42;;;;;;;3.60;1.17;;;;;;;22.90;34.05;100729.00;1690292;83;21288;-80
2022/05/13 12:03:13;;;;;;;4.40;1.22;;;;;;;22.97;34.07;100732.09;1665057;83;21104;-79
2022/05/13 12:06:05;;;;;;;2.55;1.20;;;;;;;23.07;34.00;100723.94;1681827;83;21150;-77
2022/05/13 12:08:51;;;;;;;2.35;1.20;;;;;;;23.11;33.97;100724.95;1687060;82;21031;-78
2022/05/13 12:11:43;;;;;;;2.30;1.17;;;;;;;23.14;33.79;100721.74;1685582;83;21103;-78
2022/05/13 12:14:51;;;;;;;3.83;1.47;;;;;;;23.03;33.71;100718.50;1707765;83;21044;-78
2022/05/13 12:17:36;;;;;;;3.35;1.30;;;;;;;22.93;33.64;100725.32;1682126;83;21741;-78
2022/05/13 12:20:35;;;;;;;2.80;1.67;;;;;;;22.90;33.53;100731.64;1705157;83;21095;-79
2022/05/13 12:23:35;;;;;;;2.80;1.40;;;;;;;22.76;33.37;100731.69;1690538;83;21586;-78